ETSH

Holzdorf Airport

Germany
METAR ETSH 191520Z 25008KT 9999 FEW060 31/10 Q1017 BLU+
Observed Flight Rules
Aug-19 @ 15:20 UTC (19 minutes ago) Visual Flight Rules
Wind Visibility Clouds
250° at 8 knots 10,000+ meters
  • Few at 6,000' AGL
Temperatures Readings
Current 31°C / 88°F
Dewpoint 10°C / 50°F
Humidity 27%
Altimeter 30.03" Hg
Pressure 1017 hPa
Elevation 79
METAR ETSH 191520Z 25008KT 9999 FEW060 31/10 Q1017 BLU+
Observed Flight Rules
Aug-19 @ 15:20 UTC
(19 minutes ago)
VFR
Wind Visibility
250° at 8 knots 10,000+ meters
Clouds
  • Few at 6,000' AGL
Temperature Dewpoint
31°C / 88°F 10°C / 50°F
Humidity Altimeter Pressure
27% 30.03" Hg 1017 hPa